Accueil
METAR-TAF:

METAR-TAF

Aéroports :

Londres, Angleterre

Aéroport de Londres-City

latitude: 51-30N, longitude: 000-03E, altitude: 5 m

Observation

Le bulletin a été fait il y a 27 minutes, à 03:20 UTC
Vent 8 kt de ouest/sud-ouest
Température 10°C
Humidité 76%
Pression 1014 hPa
Visibilité 10 km ou plus

METAR: EGLC 230320Z AUTO 24008KT 9999 NCD 10/06 Q1014

Heure: 04:47 (03:47 UTC)

Prévision

Le bulletin a été fait il y a 1 heure et 50 minutes, à 01:57 UTC
Prévision valable du 23 à 03 UTC au 23 à 12 UTC
Vent 12 kt de ouest
Visibilité 10 km ou plus
Nuages épars à une hauteur de 4500 ft

TAF: EGLC 230157Z 2303/2312 27012KT 9999 SCT045

Observations et prévisions météorologiques de plus de 4000 aéroports (messages METAR et TAF).

Les stations disponibles sont représentées par des disques jaunes et rouges sur la carte.

Passer la souris dessus pour voir le nom de la station.

Cliquer dessus pour voir les observations et prévisions météorologiques.

Pour changer de carte: cliquez sur les boutons verts avec une croix noire pour zoomer, sur le bouton vert avec un tiret pour effectuer un zoom arrière, ou sur les flèches vertes pour les cartes adjacentes.


METAR-TAF: